createdAt,value
2022-10-22T00:01:31.360Z,8.44
2022-10-22T00:04:35.653Z,8.37
2022-10-22T00:07:38.563Z,8.31
2022-10-22T00:10:42.153Z,8.28
2022-10-22T00:16:47.757Z,8.21
2022-10-22T00:19:50.289Z,8.18
2022-10-22T00:22:53.030Z,8.13
2022-10-22T00:25:55.601Z,8.10
2022-10-22T00:28:58.557Z,8.08
2022-10-22T00:32:01.180Z,8.04
2022-10-22T00:35:04.618Z,8.01
2022-10-22T00:38:07.139Z,8.02
2022-10-22T00:41:09.931Z,7.97
2022-10-22T00:44:50.040Z,7.95
2022-10-22T00:48:04.919Z,7.95
2022-10-22T00:51:08.356Z,7.93
2022-10-22T00:54:11.334Z,7.90
2022-10-22T00:57:13.811Z,7.89
2022-10-22T01:00:16.795Z,7.95
2022-10-22T01:03:19.229Z,7.96
2022-10-22T01:06:28.613Z,7.91
2022-10-22T01:09:41.710Z,7.86
2022-10-22T01:13:23.089Z,7.82
2022-10-22T01:16:35.026Z,7.82
2022-10-22T01:19:40.749Z,7.81
2022-10-22T01:22:59.321Z,7.81
2022-10-22T01:29:35.127Z,7.77
2022-10-22T01:32:46.492Z,7.75
2022-10-22T01:35:49.388Z,7.69
2022-10-22T01:38:52.401Z,7.62
2022-10-22T01:41:55.994Z,7.64
2022-10-22T01:44:58.744Z,7.76
2022-10-22T01:48:22.522Z,7.70
2022-10-22T01:52:03.921Z,7.55
2022-10-22T01:55:29.268Z,7.45
2022-10-22T01:58:41.527Z,7.33
2022-10-22T02:01:58.757Z,7.28
2022-10-22T02:05:09.974Z,7.13
2022-10-22T02:08:35.014Z,7.08
2022-10-22T02:11:38.164Z,7.04
2022-10-22T02:14:43.538Z,6.98
2022-10-22T02:17:47.523Z,6.98
2022-10-22T02:20:50.361Z,7.02
2022-10-22T02:23:53.208Z,7.04
2022-10-22T02:27:05.097Z,7.01
2022-10-22T02:33:28.983Z,7.06
2022-10-22T02:36:32.258Z,7.11
2022-10-22T02:39:35.921Z,7.12
2022-10-22T02:42:39.562Z,7.16
2022-10-22T02:45:42.186Z,7.12
2022-10-22T02:48:44.860Z,7.13
2022-10-22T02:51:47.340Z,7.22
2022-10-22T02:54:50.389Z,7.26
2022-10-22T02:57:52.972Z,7.25
2022-10-22T03:00:55.715Z,7.26
2022-10-22T03:03:58.159Z,7.27
2022-10-22T03:07:00.847Z,7.18
2022-10-22T03:10:04.046Z,7.20
2022-10-22T03:13:06.826Z,7.16
2022-10-22T03:16:09.356Z,7.11
2022-10-22T03:19:12.356Z,7.08
2022-10-22T03:22:25.000Z,7.04
2022-10-22T03:25:28.554Z,7.00
2022-10-22T03:28:31.615Z,7.04
2022-10-22T03:31:34.355Z,7.00
2022-10-22T03:34:36.957Z,6.97
2022-10-22T03:37:40.195Z,7.02
2022-10-22T03:40:43.886Z,7.03
2022-10-22T03:43:50.121Z,7.09
2022-10-22T03:46:52.576Z,7.03
2022-10-22T03:49:55.324Z,6.97
2022-10-22T03:52:58.277Z,6.99
2022-10-22T03:56:01.050Z,6.94
2022-10-22T03:59:03.646Z,6.94
2022-10-22T04:02:06.477Z,6.97
2022-10-22T04:05:09.372Z,7.00
2022-10-22T04:08:15.566Z,6.97
2022-10-22T04:11:18.378Z,6.94
2022-10-22T04:14:20.894Z,6.93
2022-10-22T04:17:23.653Z,6.91
2022-10-22T04:20:26.336Z,6.91
2022-10-22T04:23:30.695Z,6.84
2022-10-22T04:26:33.198Z,6.80
2022-10-22T04:29:35.956Z,6.75
2022-10-22T04:32:38.393Z,6.69
2022-10-22T04:35:41.145Z,6.68
2022-10-22T04:38:45.138Z,6.72
2022-10-22T04:41:47.865Z,6.74
2022-10-22T04:44:50.321Z,6.70
2022-10-22T04:47:53.056Z,6.57
2022-10-22T04:50:57.779Z,6.72
2022-10-22T04:54:00.593Z,6.75
2022-10-22T04:57:03.217Z,6.73
2022-10-22T05:00:06.655Z,6.74
2022-10-22T05:03:09.082Z,6.80
2022-10-22T05:09:21.137Z,6.79
2022-10-22T05:12:24.092Z,6.79
2022-10-22T05:15:26.554Z,6.74
2022-10-22T05:18:29.317Z,6.79
2022-10-22T05:21:31.859Z,6.73
2022-10-22T05:24:37.177Z,6.69
2022-10-22T05:27:39.948Z,6.65
2022-10-22T05:30:42.959Z,6.60
2022-10-22T05:33:45.762Z,6.68
2022-10-22T05:36:48.535Z,6.64
2022-10-22T05:40:01.677Z,6.63
2022-10-22T05:43:13.756Z,6.66
2022-10-22T05:46:22.725Z,6.67
2022-10-22T05:49:25.836Z,6.64
2022-10-22T05:52:28.303Z,6.64
2022-10-22T05:55:31.168Z,6.70
2022-10-22T05:58:34.681Z,6.76
2022-10-22T06:01:40.110Z,6.91
2022-10-22T06:04:42.840Z,6.95
2022-10-22T06:07:45.396Z,7.05
2022-10-22T06:10:48.123Z,7.06
2022-10-22T06:13:51.056Z,7.12
2022-10-22T06:16:54.334Z,7.24
2022-10-22T06:19:56.850Z,7.36
2022-10-22T06:22:59.614Z,7.42
2022-10-22T06:26:02.281Z,7.50
2022-10-22T06:29:05.400Z,7.60
2022-10-22T06:32:07.836Z,7.62
2022-10-22T06:35:10.610Z,7.83
2022-10-22T06:38:13.043Z,8.13
2022-10-22T06:41:16.501Z,8.32
2022-10-22T06:44:19.844Z,8.56
2022-10-22T06:47:22.572Z,8.76
2022-10-22T06:50:25.008Z,9.46
2022-10-22T06:53:27.814Z,10.63
2022-10-22T06:56:30.318Z,11.55
2022-10-22T06:59:33.410Z,12.72
2022-10-22T07:02:36.152Z,13.32
2022-10-22T07:05:38.953Z,14.27
2022-10-22T07:08:42.477Z,14.79
2022-10-22T07:11:46.103Z,15.17
2022-10-22T07:14:49.256Z,14.88
2022-10-22T07:17:51.991Z,14.42
2022-10-22T07:20:54.424Z,15.24
2022-10-22T07:23:57.731Z,14.74
2022-10-22T07:27:00.261Z,13.44
2022-10-22T07:30:04.139Z,12.95
2022-10-22T07:33:06.678Z,12.31
2022-10-22T07:36:12.104Z,12.04
2022-10-22T07:39:14.808Z,11.84
2022-10-22T07:42:17.573Z,11.82
2022-10-22T07:45:20.097Z,12.31
2022-10-22T07:48:23.401Z,12.35
2022-10-22T07:51:25.899Z,11.83
2022-10-22T07:54:28.733Z,11.70
2022-10-22T07:57:31.966Z,11.50
2022-10-22T08:00:34.797Z,11.36
2022-10-22T08:03:37.687Z,11.20
2022-10-22T08:06:43.395Z,11.15
2022-10-22T08:09:48.459Z,10.92
2022-10-22T08:12:50.893Z,11.03
2022-10-22T08:15:57.253Z,11.08
2022-10-22T08:19:00.269Z,10.86
2022-10-22T08:22:03.043Z,11.05
2022-10-22T08:25:06.087Z,10.88
2022-10-22T08:28:08.796Z,10.69
2022-10-22T08:31:11.678Z,10.78
2022-10-22T08:34:14.403Z,10.63
2022-10-22T08:37:17.821Z,10.70
2022-10-22T08:40:26.470Z,10.78
2022-10-22T08:43:34.853Z,10.66
2022-10-22T08:47:00.012Z,10.65
2022-10-22T08:50:03.221Z,11.00
2022-10-22T08:53:11.448Z,11.06
2022-10-22T08:56:15.063Z,10.97
2022-10-22T08:59:24.022Z,10.91
2022-10-22T09:02:35.440Z,11.01
2022-10-22T09:06:03.430Z,10.95
2022-10-22T09:09:13.261Z,11.01
2022-10-22T09:12:20.210Z,11.06
2022-10-22T09:15:23.105Z,11.12
2022-10-22T09:18:50.932Z,11.12
2022-10-22T09:21:56.819Z,11.44
2022-10-22T09:25:10.119Z,11.72
2022-10-22T09:28:12.622Z,11.83
2022-10-22T09:31:15.521Z,11.76
2022-10-22T09:34:21.643Z,11.84
2022-10-22T09:37:29.239Z,11.76
2022-10-22T09:40:31.692Z,11.73
2022-10-22T09:43:36.181Z,11.60
2022-10-22T09:46:45.491Z,11.45
2022-10-22T09:49:48.211Z,11.50
2022-10-22T09:53:26.028Z,11.42
2022-10-22T09:56:40.977Z,11.43
2022-10-22T09:59:44.862Z,11.54
2022-10-22T10:02:47.623Z,11.60
2022-10-22T10:05:54.417Z,11.55
2022-10-22T10:08:57.436Z,11.53
2022-10-22T10:12:09.686Z,11.66
2022-10-22T10:15:15.096Z,11.49
2022-10-22T10:18:51.472Z,11.67
2022-10-22T10:22:15.891Z,11.56
2022-10-22T10:25:37.897Z,11.70
2022-10-22T10:28:55.866Z,11.69
2022-10-22T10:32:22.405Z,11.64
2022-10-22T10:35:28.236Z,11.64
2022-10-22T10:38:58.358Z,11.63
2022-10-22T10:42:15.966Z,11.56
2022-10-22T10:45:43.566Z,11.47
2022-10-22T10:48:56.958Z,11.51
2022-10-22T10:52:18.814Z,11.50
2022-10-22T10:55:37.411Z,11.49
2022-10-22T10:59:25.685Z,11.53
2022-10-22T11:02:28.059Z,11.51
2022-10-22T11:06:00.480Z,11.53
2022-10-22T11:09:11.688Z,11.48
2022-10-22T11:12:23.613Z,11.49
2022-10-22T11:15:37.227Z,11.50
2022-10-22T11:18:48.455Z,11.54
2022-10-22T11:22:07.428Z,11.57
2022-10-22T11:25:12.762Z,11.57
2022-10-22T11:28:21.480Z,11.66
2022-10-22T11:31:25.843Z,11.74
2022-10-22T11:35:01.813Z,11.73
2022-10-22T11:38:07.022Z,12.01
2022-10-22T11:41:14.630Z,12.01
2022-10-22T11:44:23.616Z,12.00
2022-10-22T11:47:42.854Z,12.20
2022-10-22T11:50:55.124Z,12.16
2022-10-22T11:53:58.542Z,12.02
2022-10-22T11:57:16.333Z,12.13
2022-10-22T12:00:40.256Z,12.01
2022-10-22T12:03:46.506Z,12.10
2022-10-22T12:07:02.020Z,12.15
2022-10-22T12:10:06.371Z,12.21
2022-10-22T12:13:14.458Z,12.21
2022-10-22T12:16:27.221Z,12.18
2022-10-22T12:19:43.656Z,12.11
2022-10-22T12:22:46.389Z,12.12
2022-10-22T12:25:48.844Z,12.16
2022-10-22T12:28:51.742Z,12.24
2022-10-22T12:31:55.071Z,12.45
2022-10-22T12:34:57.812Z,12.48
2022-10-22T12:38:13.938Z,12.56
2022-10-22T12:41:16.680Z,12.54
2022-10-22T12:44:19.281Z,12.47
2022-10-22T12:47:22.203Z,12.40
2022-10-22T12:50:38.299Z,12.36
2022-10-22T12:53:47.639Z,12.40
2022-10-22T12:56:50.512Z,12.31
2022-10-22T12:59:53.337Z,12.34
2022-10-22T13:02:57.661Z,12.52
2022-10-22T13:06:18.766Z,12.60
2022-10-22T13:09:25.412Z,12.58
2022-10-22T13:12:37.273Z,12.54
2022-10-22T13:15:40.071Z,12.44
2022-10-22T13:18:43.983Z,12.53
2022-10-22T13:21:48.880Z,12.57
2022-10-22T13:24:51.821Z,12.49
2022-10-22T13:27:55.372Z,12.45
2022-10-22T13:31:08.510Z,12.45
2022-10-22T13:34:17.239Z,12.39
2022-10-22T13:37:20.061Z,12.36
2022-10-22T13:40:22.574Z,12.34
2022-10-22T13:43:25.514Z,11.90
2022-10-22T13:46:29.197Z,12.11
2022-10-22T13:49:31.984Z,12.16
2022-10-22T13:52:38.736Z,12.05
2022-10-22T13:55:41.646Z,12.06
2022-10-22T13:58:45.698Z,12.03
2022-10-22T14:01:48.471Z,11.96
2022-10-22T14:04:51.694Z,11.86
2022-10-22T14:07:54.178Z,11.84
2022-10-22T14:10:57.022Z,11.78
2022-10-22T14:13:59.520Z,11.78
2022-10-22T14:17:02.478Z,11.73
2022-10-22T14:20:05.218Z,11.70
2022-10-22T14:23:20.499Z,11.72
2022-10-22T14:26:31.291Z,11.71
2022-10-22T14:29:33.984Z,11.73
2022-10-22T14:32:36.835Z,11.75
2022-10-22T14:35:39.588Z,11.74
2022-10-22T14:38:43.081Z,11.76
2022-10-22T14:41:45.845Z,11.72
2022-10-22T14:44:48.313Z,11.71
2022-10-22T14:47:51.841Z,11.67
2022-10-22T14:50:54.804Z,11.60
2022-10-22T14:53:57.577Z,11.56
2022-10-22T14:57:00.056Z,11.51
2022-10-22T15:00:04.103Z,11.42
2022-10-22T15:03:06.880Z,11.39
2022-10-22T15:06:11.312Z,11.39
2022-10-22T15:09:14.554Z,11.33
2022-10-22T15:12:17.318Z,11.29
2022-10-22T15:15:22.641Z,11.28
2022-10-22T15:18:26.368Z,11.25
2022-10-22T15:21:28.895Z,11.23
2022-10-22T15:24:32.311Z,11.15
2022-10-22T15:27:35.429Z,11.12
2022-10-22T15:30:38.450Z,11.05
2022-10-22T15:33:42.430Z,11.00
2022-10-22T15:36:45.215Z,10.95
2022-10-22T15:39:47.946Z,10.88
2022-10-22T15:42:50.778Z,10.85
2022-10-22T15:46:15.337Z,10.82
2022-10-22T15:49:18.402Z,10.80
2022-10-22T15:52:23.783Z,10.64
2022-10-22T15:55:26.736Z,10.75
2022-10-22T15:58:29.214Z,10.72
2022-10-22T16:01:34.134Z,10.68
2022-10-22T16:04:38.045Z,10.63
2022-10-22T16:07:40.819Z,10.61
2022-10-22T16:10:48.545Z,10.57
2022-10-22T16:13:56.520Z,10.51
2022-10-22T16:16:59.755Z,10.47
2022-10-22T16:20:02.976Z,10.43
2022-10-22T16:23:06.048Z,10.42
2022-10-22T16:26:08.703Z,10.41
2022-10-22T16:29:12.645Z,10.38
2022-10-22T16:32:16.503Z,10.27
2022-10-22T16:35:19.238Z,10.37
2022-10-22T16:38:21.705Z,10.33
2022-10-22T16:41:25.914Z,10.31
2022-10-22T16:44:29.322Z,10.27
2022-10-22T16:47:32.036Z,10.25
2022-10-22T16:50:34.643Z,10.21
2022-10-22T16:53:37.698Z,10.16
2022-10-22T16:56:40.227Z,10.11
2022-10-22T16:59:43.220Z,10.06
2022-10-22T17:02:45.786Z,10.00
2022-10-22T17:05:49.199Z,9.96
2022-10-22T17:08:52.114Z,9.89
2022-10-22T17:11:55.186Z,9.85
2022-10-22T17:14:57.635Z,9.77
2022-10-22T17:18:00.854Z,9.73
2022-10-22T17:21:07.942Z,9.66
2022-10-22T17:24:11.023Z,9.67
2022-10-22T17:27:14.159Z,9.61
2022-10-22T17:30:22.018Z,9.58
2022-10-22T17:33:27.648Z,9.48
2022-10-22T17:36:34.819Z,9.34
2022-10-22T17:39:38.659Z,9.21
2022-10-22T17:42:43.006Z,9.14
2022-10-22T17:45:46.006Z,9.04
2022-10-22T17:48:54.267Z,8.93
2022-10-22T17:51:57.097Z,8.83
2022-10-22T17:55:00.013Z,8.75
2022-10-22T17:58:02.751Z,8.86
2022-10-22T18:01:05.944Z,8.65
2022-10-22T18:04:10.941Z,8.72
2022-10-22T18:07:13.578Z,8.73
2022-10-22T18:10:16.448Z,8.59
2022-10-22T18:13:19.179Z,8.57
2022-10-22T18:16:22.662Z,8.55
2022-10-22T18:19:25.303Z,8.57
2022-10-22T18:22:28.486Z,8.68
2022-10-22T18:25:31.831Z,8.46
2022-10-22T18:28:34.947Z,8.41
2022-10-22T18:31:37.663Z,8.32
2022-10-22T18:34:40.550Z,8.23
2022-10-22T18:37:43.466Z,8.16
2022-10-22T18:40:46.892Z,8.12
2022-10-22T18:43:51.282Z,8.15
2022-10-22T18:46:54.221Z,8.15
2022-10-22T18:49:57.022Z,8.29
2022-10-22T18:53:00.385Z,8.33
2022-10-22T18:56:07.724Z,8.40
2022-10-22T18:59:17.436Z,8.46
2022-10-22T19:02:20.249Z,8.55
2022-10-22T19:05:23.334Z,8.66
2022-10-22T19:08:26.076Z,8.74
2022-10-22T19:11:29.045Z,8.84
2022-10-22T19:14:32.319Z,8.90
2022-10-22T19:17:35.181Z,8.96
2022-10-22T19:20:37.945Z,9.04
2022-10-22T19:23:41.228Z,9.13
2022-10-22T19:26:44.446Z,9.19
2022-10-22T19:29:49.490Z,9.23
2022-10-22T19:32:52.098Z,9.18
2022-10-22T19:35:54.946Z,9.16
2022-10-22T19:38:58.247Z,9.15
2022-10-22T19:42:01.705Z,9.18
2022-10-22T19:45:05.417Z,9.16
2022-10-22T19:48:08.234Z,9.11
2022-10-22T19:51:15.413Z,9.04
2022-10-22T19:54:21.205Z,8.92
2022-10-22T19:57:23.837Z,8.75
2022-10-22T20:00:28.414Z,8.69
2022-10-22T20:03:31.466Z,8.59
2022-10-22T20:06:33.983Z,8.47
2022-10-22T20:09:36.945Z,8.37
2022-10-22T20:12:39.654Z,8.28
2022-10-22T20:15:42.497Z,8.21
2022-10-22T20:18:45.306Z,8.15
2022-10-22T20:21:50.913Z,8.12
2022-10-22T20:24:54.484Z,8.04
2022-10-22T20:27:58.434Z,8.00
2022-10-22T20:31:01.027Z,8.01
2022-10-22T20:34:04.235Z,7.94
2022-10-22T20:37:06.689Z,7.87
2022-10-22T20:40:11.135Z,7.87
2022-10-22T20:43:13.647Z,7.87
2022-10-22T20:46:24.494Z,7.86
2022-10-22T20:49:26.970Z,7.84
2022-10-22T20:52:29.962Z,7.73
2022-10-22T20:55:32.657Z,7.78
2022-10-22T20:58:35.855Z,7.72
2022-10-22T21:01:40.273Z,7.74
2022-10-22T21:04:45.582Z,7.65
2022-10-22T21:07:48.915Z,7.64
2022-10-22T21:10:51.686Z,7.61
2022-10-22T21:13:54.196Z,7.55
2022-10-22T21:16:57.080Z,7.54
2022-10-22T21:19:59.610Z,7.53
2022-10-22T21:23:02.348Z,7.51
2022-10-22T21:26:05.580Z,7.54
2022-10-22T21:29:09.037Z,7.58
2022-10-22T21:32:11.485Z,7.56
2022-10-22T21:35:14.274Z,7.45
2022-10-22T21:38:16.781Z,7.41
2022-10-22T21:41:21.611Z,7.40
2022-10-22T21:44:24.036Z,7.35
2022-10-22T21:47:26.771Z,7.35
2022-10-22T21:50:30.049Z,7.28
2022-10-22T21:53:32.756Z,7.22
2022-10-22T21:56:36.171Z,7.19
2022-10-22T21:59:38.932Z,7.12
2022-10-22T22:02:41.526Z,7.09
2022-10-22T22:05:44.422Z,7.10
2022-10-22T22:08:47.189Z,7.05
2022-10-22T22:11:49.982Z,6.97
2022-10-22T22:14:52.465Z,6.92
2022-10-22T22:17:55.226Z,7.28
2022-10-22T22:20:58.607Z,7.70
2022-10-22T22:24:01.519Z,7.75
2022-10-22T22:27:04.175Z,7.86
2022-10-22T22:30:07.685Z,7.92
2022-10-22T22:33:10.483Z,7.94
2022-10-22T22:36:13.291Z,7.85
2022-10-22T22:39:22.578Z,7.85
2022-10-22T22:42:25.306Z,7.94
2022-10-22T22:45:27.779Z,7.95
2022-10-22T22:48:30.756Z,7.97
2022-10-22T22:51:33.272Z,7.98
2022-10-22T22:54:36.004Z,7.90
2022-10-22T22:57:38.521Z,7.80
2022-10-22T23:03:58.761Z,7.93
2022-10-22T23:07:01.506Z,7.65
2022-10-22T23:10:04.135Z,7.45
2022-10-22T23:13:06.873Z,7.26
2022-10-22T23:16:13.447Z,7.12
2022-10-22T23:19:18.655Z,6.95
2022-10-22T23:22:21.156Z,6.72
2022-10-22T23:25:23.942Z,6.66
2022-10-22T23:28:26.665Z,6.63
2022-10-22T23:31:29.852Z,6.60
2022-10-22T23:34:32.723Z,6.61
2022-10-22T23:37:35.512Z,6.66
2022-10-22T23:40:38.375Z,6.62
2022-10-22T23:43:41.173Z,6.66
2022-10-22T23:46:43.856Z,6.51
2022-10-22T23:49:46.824Z,6.50
2022-10-22T23:52:49.314Z,6.46
2022-10-22T23:55:52.090Z,6.38
2022-10-22T23:58:54.845Z,6.30
